sensor_id;sensor_type;location;lat;lon;timestamp;noise_LAeq;noise_LA_min;noise_LA_max;noise_LA01;noise_LA95
36217;Laerm;22259;48.792;8.964;2023-02-12T00:01:00;41.43;37.75;44.61;;
36217;Laerm;22259;48.792;8.964;2023-02-12T00:03:26;41.23;38.13;44.65;;
36217;Laerm;22259;48.792;8.964;2023-02-12T00:05:51;41.42;38.25;53.51;;
36217;Laerm;22259;48.792;8.964;2023-02-12T00:08:16;40.78;38.17;43.47;;
36217;Laerm;22259;48.792;8.964;2023-02-12T00:10:42;41.35;38.57;43.58;;
36217;Laerm;22259;48.792;8.964;2023-02-12T00:13:08;41.46;38.74;43.22;;
36217;Laerm;22259;48.792;8.964;2023-02-12T00:15:37;52.70;38.88;68.44;;
36217;Laerm;22259;48.792;8.964;2023-02-12T00:18:02;49.67;39.15;65.71;;
36217;Laerm;22259;48.792;8.964;2023-02-12T00:20:27;41.72;38.33;46.49;;
36217;Laerm;22259;48.792;8.964;2023-02-12T00:22:53;40.85;38.21;43.06;;
36217;Laerm;22259;48.792;8.964;2023-02-12T00:25:18;40.14;37.44;42.64;;
36217;Laerm;22259;48.792;8.964;2023-02-12T00:27:44;40.20;37.70;42.98;;
36217;Laerm;22259;48.792;8.964;2023-02-12T00:30:09;40.62;37.96;43.26;;
36217;Laerm;22259;48.792;8.964;2023-02-12T00:32:35;41.33;37.75;44.80;;
36217;Laerm;22259;48.792;8.964;2023-02-12T00:35:01;40.66;37.52;44.52;;
36217;Laerm;22259;48.792;8.964;2023-02-12T00:37:26;40.31;37.61;42.59;;
36217;Laerm;22259;48.792;8.964;2023-02-12T00:39:52;40.11;37.42;42.24;;
36217;Laerm;22259;48.792;8.964;2023-02-12T00:42:17;40.22;37.66;43.55;;
36217;Laerm;22259;48.792;8.964;2023-02-12T00:44:42;40.88;38.60;42.62;;
36217;Laerm;22259;48.792;8.964;2023-02-12T00:47:08;50.80;39.21;67.21;;
36217;Laerm;22259;48.792;8.964;2023-02-12T00:49:34;41.64;38.37;44.97;;
36217;Laerm;22259;48.792;8.964;2023-02-12T00:52:00;41.35;38.77;43.34;;
36217;Laerm;22259;48.792;8.964;2023-02-12T00:54:25;41.67;38.63;43.94;;
36217;Laerm;22259;48.792;8.964;2023-02-12T00:56:51;41.52;38.87;43.61;;
36217;Laerm;22259;48.792;8.964;2023-02-12T00:59:16;66.69;39.21;80.23;;
36217;Laerm;22259;48.792;8.964;2023-02-12T01:01:42;41.64;38.52;44.25;;
36217;Laerm;22259;48.792;8.964;2023-02-12T01:04:07;41.21;38.56;44.00;;
36217;Laerm;22259;48.792;8.964;2023-02-12T01:06:32;40.49;37.83;43.19;;
36217;Laerm;22259;48.792;8.964;2023-02-12T01:08:58;40.45;37.22;43.32;;
36217;Laerm;22259;48.792;8.964;2023-02-12T01:11:23;41.49;38.09;45.54;;
36217;Laerm;22259;48.792;8.964;2023-02-12T01:13:48;40.94;37.75;44.61;;
36217;Laerm;22259;48.792;8.964;2023-02-12T01:16:15;54.13;38.01;70.26;;
36217;Laerm;22259;48.792;8.964;2023-02-12T01:18:41;40.81;37.66;42.98;;
36217;Laerm;22259;48.792;8.964;2023-02-12T01:21:11;41.92;39.15;48.15;;
36217;Laerm;22259;48.792;8.964;2023-02-12T01:23:36;41.67;38.92;44.10;;
36217;Laerm;22259;48.792;8.964;2023-02-12T01:26:02;41.49;38.95;44.34;;
36217;Laerm;22259;48.792;8.964;2023-02-12T01:28:27;41.53;39.28;43.45;;
36217;Laerm;22259;48.792;8.964;2023-02-12T01:30:52;41.55;38.95;44.11;;
36217;Laerm;22259;48.792;8.964;2023-02-12T01:33:18;41.61;38.81;44.74;;
36217;Laerm;22259;48.792;8.964;2023-02-12T01:35:45;40.21;37.66;42.96;;
36217;Laerm;22259;48.792;8.964;2023-02-12T01:38:10;40.05;36.69;42.52;;
36217;Laerm;22259;48.792;8.964;2023-02-12T01:40:35;40.19;37.47;42.52;;
36217;Laerm;22259;48.792;8.964;2023-02-12T01:43:01;40.71;37.96;42.94;;
36217;Laerm;22259;48.792;8.964;2023-02-12T01:45:40;41.21;38.67;44.52;;
36217;Laerm;22259;48.792;8.964;2023-02-12T01:48:09;49.14;38.45;68.11;;
36217;Laerm;22259;48.792;8.964;2023-02-12T01:50:35;41.26;38.49;43.68;;
36217;Laerm;22259;48.792;8.964;2023-02-12T01:53:00;40.59;37.42;43.12;;
36217;Laerm;22259;48.792;8.964;2023-02-12T01:55:26;41.20;38.06;45.67;;
36217;Laerm;22259;48.792;8.964;2023-02-12T01:57:51;41.47;38.71;43.65;;
36217;Laerm;22259;48.792;8.964;2023-02-12T02:00:19;41.51;38.67;44.32;;
36217;Laerm;22259;48.792;8.964;2023-02-12T02:02:45;41.18;38.88;45.94;;
36217;Laerm;22259;48.792;8.964;2023-02-12T02:05:12;41.30;38.67;43.58;;
36217;Laerm;22259;48.792;8.964;2023-02-12T02:07:39;41.41;38.21;45.61;;
36217;Laerm;22259;48.792;8.964;2023-02-12T02:10:06;40.37;37.02;43.10;;
36217;Laerm;22259;48.792;8.964;2023-02-12T02:12:31;39.83;36.85;42.24;;
36217;Laerm;22259;48.792;8.964;2023-02-12T02:15:15;52.16;37.83;67.95;;
36217;Laerm;22259;48.792;8.964;2023-02-12T02:17:51;39.72;36.96;42.72;;
36217;Laerm;22259;48.792;8.964;2023-02-12T02:33:38;41.09;37.56;44.86;;
36217;Laerm;22259;48.792;8.964;2023-02-12T02:40:24;41.56;38.60;45.12;;
36217;Laerm;22259;48.792;8.964;2023-02-12T02:42:53;41.33;38.67;43.83;;
36217;Laerm;22259;48.792;8.964;2023-02-12T02:45:27;41.05;37.70;43.09;;
36217;Laerm;22259;48.792;8.964;2023-02-12T02:48:09;48.34;37.02;63.62;;
36217;Laerm;22259;48.792;8.964;2023-02-12T02:50:37;41.54;36.74;49.55;;
36217;Laerm;22259;48.792;8.964;2023-02-12T02:53:09;39.90;37.02;44.01;;
36217;Laerm;22259;48.792;8.964;2023-02-12T02:55:37;40.02;37.12;42.43;;
36217;Laerm;22259;48.792;8.964;2023-02-12T02:58:11;40.41;37.12;43.43;;
36217;Laerm;22259;48.792;8.964;2023-02-12T03:00:42;39.88;37.07;44.05;;
36217;Laerm;22259;48.792;8.964;2023-02-12T03:03:31;40.14;37.70;42.85;;
36217;Laerm;22259;48.792;8.964;2023-02-12T03:06:01;40.29;37.07;42.78;;
36217;Laerm;22259;48.792;8.964;2023-02-12T03:08:33;41.11;38.56;43.06;;
36217;Laerm;22259;48.792;8.964;2023-02-12T03:11:44;41.00;38.13;42.83;;
36217;Laerm;22259;48.792;8.964;2023-02-12T03:14:15;41.48;38.21;46.24;;
36217;Laerm;22259;48.792;8.964;2023-02-12T03:17:00;50.66;38.45;68.23;;
36217;Laerm;22259;48.792;8.964;2023-02-12T03:19:45;40.74;37.37;42.75;;
36217;Laerm;22259;48.792;8.964;2023-02-12T03:22:13;40.00;37.02;43.10;;
36217;Laerm;22259;48.792;8.964;2023-02-12T03:24:44;40.20;37.12;42.49;;
36217;Laerm;22259;48.792;8.964;2023-02-12T03:27:15;40.13;37.42;43.26;;
36217;Laerm;22259;48.792;8.964;2023-02-12T03:29:42;39.80;37.07;42.26;;
36217;Laerm;22259;48.792;8.964;2023-02-12T03:32:14;39.79;37.12;42.01;;
36217;Laerm;22259;48.792;8.964;2023-02-12T03:34:47;39.70;37.07;42.01;;
36217;Laerm;22259;48.792;8.964;2023-02-12T03:37:24;39.99;36.80;42.47;;
36217;Laerm;22259;48.792;8.964;2023-02-12T03:39:52;40.00;37.22;43.47;;
36217;Laerm;22259;48.792;8.964;2023-02-12T03:42:54;42.39;38.81;45.06;;
36217;Laerm;22259;48.792;8.964;2023-02-12T03:46:10;41.16;38.01;43.18;;
36217;Laerm;22259;48.792;8.964;2023-02-12T03:48:55;48.96;38.37;66.74;;
36217;Laerm;22259;48.792;8.964;2023-02-12T03:51:38;41.24;38.39;43.53;;
36217;Laerm;22259;48.792;8.964;2023-02-12T03:54:05;41.19;38.41;43.14;;
36217;Laerm;22259;48.792;8.964;2023-02-12T03:56:33;41.27;38.78;43.32;;
36217;Laerm;22259;48.792;8.964;2023-02-12T03:59:02;41.31;38.13;43.06;;
36217;Laerm;22259;48.792;8.964;2023-02-12T04:01:27;41.14;38.71;43.02;;
36217;Laerm;22259;48.792;8.964;2023-02-12T04:03:53;41.35;39.02;43.45;;
36217;Laerm;22259;48.792;8.964;2023-02-12T04:06:23;42.28;38.37;45.57;;
36217;Laerm;22259;48.792;8.964;2023-02-12T04:08:53;41.57;38.05;44.83;;
36217;Laerm;22259;48.792;8.964;2023-02-12T04:11:22;41.64;38.81;44.43;;
36217;Laerm;22259;48.792;8.964;2023-02-12T04:14:35;41.29;38.37;44.72;;
36217;Laerm;22259;48.792;8.964;2023-02-12T04:17:08;48.63;38.60;67.69;;
36217;Laerm;22259;48.792;8.964;2023-02-12T04:19:47;41.33;38.63;43.08;;
36217;Laerm;22259;48.792;8.964;2023-02-12T04:22:31;41.32;38.85;43.21;;
36217;Laerm;22259;48.792;8.964;2023-02-12T04:27:46;41.68;39.02;45.67;;
36217;Laerm;22259;48.792;8.964;2023-02-12T04:30:32;41.72;38.67;45.56;;
36217;Laerm;22259;48.792;8.964;2023-02-12T04:33:01;41.98;38.63;44.39;;
36217;Laerm;22259;48.792;8.964;2023-02-12T04:35:35;41.70;38.92;43.65;;
36217;Laerm;22259;48.792;8.964;2023-02-12T04:38:14;41.52;39.18;43.62;;
36217;Laerm;22259;48.792;8.964;2023-02-12T04:40:43;41.66;38.37;43.72;;
36217;Laerm;22259;48.792;8.964;2023-02-12T04:43:08;41.68;39.25;43.72;;
36217;Laerm;22259;48.792;8.964;2023-02-12T04:45:34;41.67;39.49;43.33;;
36217;Laerm;22259;48.792;8.964;2023-02-12T04:48:00;49.95;38.81;67.70;;
36217;Laerm;22259;48.792;8.964;2023-02-12T04:50:26;40.22;37.02;42.79;;
36217;Laerm;22259;48.792;8.964;2023-02-12T04:52:59;40.46;37.52;42.65;;
36217;Laerm;22259;48.792;8.964;2023-02-12T04:55:24;40.28;37.88;42.55;;
36217;Laerm;22259;48.792;8.964;2023-02-12T04:57:49;39.73;36.63;42.09;;
36217;Laerm;22259;48.792;8.964;2023-02-12T05:00:15;40.01;37.37;42.24;;
36217;Laerm;22259;48.792;8.964;2023-02-12T05:02:40;40.67;37.66;45.09;;
36217;Laerm;22259;48.792;8.964;2023-02-12T05:05:06;40.61;38.01;42.55;;
36217;Laerm;22259;48.792;8.964;2023-02-12T05:07:31;41.15;38.25;43.66;;
36217;Laerm;22259;48.792;8.964;2023-02-12T05:09:57;41.18;38.01;60.20;;
36217;Laerm;22259;48.792;8.964;2023-02-12T05:12:22;40.86;38.60;42.86;;
36217;Laerm;22259;48.792;8.964;2023-02-12T05:14:48;50.54;38.78;67.68;;
36217;Laerm;22259;48.792;8.964;2023-02-12T05:17:13;41.84;39.49;44.07;;
36217;Laerm;22259;48.792;8.964;2023-02-12T05:19:38;41.95;39.58;43.66;;
36217;Laerm;22259;48.792;8.964;2023-02-12T05:22:04;41.44;38.92;43.62;;
36217;Laerm;22259;48.792;8.964;2023-02-12T05:24:29;41.26;38.52;43.19;;
36217;Laerm;22259;48.792;8.964;2023-02-12T05:26:54;41.20;38.88;43.26;;
36217;Laerm;22259;48.792;8.964;2023-02-12T05:29:20;40.94;37.88;42.76;;
36217;Laerm;22259;48.792;8.964;2023-02-12T05:31:45;41.29;38.81;43.89;;
36217;Laerm;22259;48.792;8.964;2023-02-12T05:34:11;41.40;38.88;43.17;;
36217;Laerm;22259;48.792;8.964;2023-02-12T05:36:37;40.50;37.75;43.92;;
36217;Laerm;22259;48.792;8.964;2023-02-12T05:39:02;40.17;37.52;45.67;;
36217;Laerm;22259;48.792;8.964;2023-02-12T05:41:27;40.15;37.79;42.85;;
36217;Laerm;22259;48.792;8.964;2023-02-12T05:43:53;40.41;37.56;55.29;;
36217;Laerm;22259;48.792;8.964;2023-02-12T05:46:19;40.15;37.56;42.38;;
36217;Laerm;22259;48.792;8.964;2023-02-12T05:48:45;45.10;37.22;60.91;;
36217;Laerm;22259;48.792;8.964;2023-02-12T05:51:15;40.66;37.32;46.31;;
36217;Laerm;22259;48.792;8.964;2023-02-12T05:53:41;41.21;37.70;52.39;;
36217;Laerm;22259;48.792;8.964;2023-02-12T05:56:08;40.87;37.42;58.41;;
36217;Laerm;22259;48.792;8.964;2023-02-12T05:58:34;40.29;37.37;48.12;;
36217;Laerm;22259;48.792;8.964;2023-02-12T06:00:59;41.45;37.52;55.19;;
36217;Laerm;22259;48.792;8.964;2023-02-12T06:03:24;41.06;38.37;52.67;;
36217;Laerm;22259;48.792;8.964;2023-02-12T06:05:50;42.02;38.60;67.35;;
36217;Laerm;22259;48.792;8.964;2023-02-12T06:08:16;41.71;39.31;44.49;;
36217;Laerm;22259;48.792;8.964;2023-02-12T06:10:41;46.47;39.37;72.07;;
36217;Laerm;22259;48.792;8.964;2023-02-12T06:13:06;41.90;39.31;45.17;;
36217;Laerm;22259;48.792;8.964;2023-02-12T06:15:32;50.03;39.81;66.95;;
36217;Laerm;22259;48.792;8.964;2023-02-12T06:18:00;41.96;39.40;48.88;;
36217;Laerm;22259;48.792;8.964;2023-02-12T06:20:25;47.40;39.05;70.47;;
36217;Laerm;22259;48.792;8.964;2023-02-12T06:22:51;42.01;39.15;53.67;;
36217;Laerm;22259;48.792;8.964;2023-02-12T06:25:16;42.11;39.26;57.41;;
36217;Laerm;22259;48.792;8.964;2023-02-12T06:27:41;42.22;39.49;53.08;;
36217;Laerm;22259;48.792;8.964;2023-02-12T06:30:07;41.87;38.88;51.59;;
36217;Laerm;22259;48.792;8.964;2023-02-12T06:32:32;41.97;38.45;50.99;;
36217;Laerm;22259;48.792;8.964;2023-02-12T06:34:58;45.87;38.60;66.32;;
36217;Laerm;22259;48.792;8.964;2023-02-12T06:37:23;42.08;38.33;54.30;;
36217;Laerm;22259;48.792;8.964;2023-02-12T06:39:49;42.06;38.95;54.85;;
36217;Laerm;22259;48.792;8.964;2023-02-12T06:42:14;41.41;38.67;59.09;;
36217;Laerm;22259;48.792;8.964;2023-02-12T06:44:39;50.50;39.05;68.89;;
36217;Laerm;22259;48.792;8.964;2023-02-12T06:47:05;51.21;38.85;68.25;;
36217;Laerm;22259;48.792;8.964;2023-02-12T06:49:30;45.48;39.28;65.82;;
36217;Laerm;22259;48.792;8.964;2023-02-12T06:51:56;41.93;38.67;55.28;;
36217;Laerm;22259;48.792;8.964;2023-02-12T06:54:21;43.89;38.98;59.86;;
36217;Laerm;22259;48.792;8.964;2023-02-12T06:56:46;43.05;39.52;63.32;;
36217;Laerm;22259;48.792;8.964;2023-02-12T06:59:13;43.92;39.34;64.31;;
36217;Laerm;22259;48.792;8.964;2023-02-12T07:01:39;42.24;39.61;49.57;;
36217;Laerm;22259;48.792;8.964;2023-02-12T07:04:04;42.12;39.25;45.21;;
36217;Laerm;22259;48.792;8.964;2023-02-12T07:06:30;41.86;39.61;44.04;;
36217;Laerm;22259;48.792;8.964;2023-02-12T07:08:57;42.02;39.75;45.30;;
36217;Laerm;22259;48.792;8.964;2023-02-12T07:11:23;44.91;39.76;68.37;;
36217;Laerm;22259;48.792;8.964;2023-02-12T07:13:49;44.11;39.52;60.91;;
36217;Laerm;22259;48.792;8.964;2023-02-12T07:16:15;50.01;39.43;67.17;;
36217;Laerm;22259;48.792;8.964;2023-02-12T07:18:41;43.78;40.11;66.08;;
36217;Laerm;22259;48.792;8.964;2023-02-12T07:21:07;43.58;39.92;63.42;;
36217;Laerm;22259;48.792;8.964;2023-02-12T07:23:33;42.34;39.18;53.29;;
36217;Laerm;22259;48.792;8.964;2023-02-12T07:25:59;45.64;38.88;73.58;;
36217;Laerm;22259;48.792;8.964;2023-02-12T07:28:25;42.01;39.05;53.29;;
36217;Laerm;22259;48.792;8.964;2023-02-12T07:30:51;42.96;39.23;61.55;;
36217;Laerm;22259;48.792;8.964;2023-02-12T07:33:16;42.65;38.98;56.37;;
36217;Laerm;22259;48.792;8.964;2023-02-12T07:35:42;42.57;39.31;60.11;;
36217;Laerm;22259;48.792;8.964;2023-02-12T07:38:07;43.39;39.37;56.16;;
36217;Laerm;22259;48.792;8.964;2023-02-12T07:40:32;43.91;41.24;56.11;;
36217;Laerm;22259;48.792;8.964;2023-02-12T07:42:58;43.80;41.73;49.47;;
36217;Laerm;22259;48.792;8.964;2023-02-12T07:45:23;48.30;41.57;61.26;;
36217;Laerm;22259;48.792;8.964;2023-02-12T07:47:48;51.61;42.47;65.37;;
36217;Laerm;22259;48.792;8.964;2023-02-12T07:50:14;54.98;42.04;69.54;;
36217;Laerm;22259;48.792;8.964;2023-02-12T07:52:39;44.32;42.56;56.60;;
36217;Laerm;22259;48.792;8.964;2023-02-12T07:55:05;44.90;42.81;57.36;;
36217;Laerm;22259;48.792;8.964;2023-02-12T07:57:30;48.92;42.97;68.43;;
36217;Laerm;22259;48.792;8.964;2023-02-12T07:59:56;44.51;42.83;47.44;;
36217;Laerm;22259;48.792;8.964;2023-02-12T08:02:21;44.58;42.75;51.30;;
36217;Laerm;22259;48.792;8.964;2023-02-12T08:04:53;44.71;42.29;58.30;;
36217;Laerm;22259;48.792;8.964;2023-02-12T08:07:19;47.23;41.96;63.31;;
36217;Laerm;22259;48.792;8.964;2023-02-12T08:09:44;46.91;40.95;65.49;;
36217;Laerm;22259;48.792;8.964;2023-02-12T08:12:09;45.10;39.61;65.29;;
36217;Laerm;22259;48.792;8.964;2023-02-12T08:14:35;44.35;39.84;60.67;;
36217;Laerm;22259;48.792;8.964;2023-02-12T08:17:00;49.46;40.00;67.88;;
36217;Laerm;22259;48.792;8.964;2023-02-12T08:19:26;53.49;40.31;69.73;;
36217;Laerm;22259;48.792;8.964;2023-02-12T08:21:51;42.72;40.03;56.12;;
36217;Laerm;22259;48.792;8.964;2023-02-12T08:24:17;42.80;39.97;54.05;;
36217;Laerm;22259;48.792;8.964;2023-02-12T08:26:43;42.44;40.08;58.89;;
36217;Laerm;22259;48.792;8.964;2023-02-12T08:29:10;43.13;39.73;51.68;;
36217;Laerm;22259;48.792;8.964;2023-02-12T08:31:37;44.43;39.61;55.87;;
36217;Laerm;22259;48.792;8.964;2023-02-12T08:34:03;44.81;40.08;57.52;;
36217;Laerm;22259;48.792;8.964;2023-02-12T08:36:30;53.54;40.55;66.01;;
36217;Laerm;22259;48.792;8.964;2023-02-12T08:38:56;42.96;39.92;68.53;;
36217;Laerm;22259;48.792;8.964;2023-02-12T08:41:23;42.69;40.08;52.85;;
36217;Laerm;22259;48.792;8.964;2023-02-12T08:43:49;42.45;40.33;54.02;;
36217;Laerm;22259;48.792;8.964;2023-02-12T08:46:16;53.93;39.73;69.46;;
36217;Laerm;22259;48.792;8.964;2023-02-12T08:48:42;48.54;40.18;65.00;;
36217;Laerm;22259;48.792;8.964;2023-02-12T08:51:09;42.34;39.97;49.45;;
36217;Laerm;22259;48.792;8.964;2023-02-12T08:53:34;45.02;40.32;68.77;;
36217;Laerm;22259;48.792;8.964;2023-02-12T08:56:00;42.61;40.60;49.07;;
36217;Laerm;22259;48.792;8.964;2023-02-12T08:58:26;42.78;40.50;49.30;;
36217;Laerm;22259;48.792;8.964;2023-02-12T09:00:51;43.44;39.97;64.06;;
36217;Laerm;22259;48.792;8.964;2023-02-12T09:03:16;45.90;40.50;60.48;;
36217;Laerm;22259;48.792;8.964;2023-02-12T09:05:42;46.26;40.41;59.60;;
36217;Laerm;22259;48.792;8.964;2023-02-12T09:08:07;42.66;40.03;52.18;;
36217;Laerm;22259;48.792;8.964;2023-02-12T09:10:33;42.98;39.84;54.97;;
36217;Laerm;22259;48.792;8.964;2023-02-12T09:12:58;42.76;40.13;54.05;;
36217;Laerm;22259;48.792;8.964;2023-02-12T09:15:24;52.97;40.23;69.36;;
36217;Laerm;22259;48.792;8.964;2023-02-12T09:17:49;42.04;39.08;52.90;;
36217;Laerm;22259;48.792;8.964;2023-02-12T09:20:14;42.48;39.84;57.07;;
36217;Laerm;22259;48.792;8.964;2023-02-12T09:22:40;51.22;39.58;67.42;;
36217;Laerm;22259;48.792;8.964;2023-02-12T09:25:05;43.43;39.95;60.48;;
36217;Laerm;22259;48.792;8.964;2023-02-12T09:27:31;49.14;39.75;69.71;;
36217;Laerm;22259;48.792;8.964;2023-02-12T09:29:56;42.23;39.89;51.64;;
36217;Laerm;22259;48.792;8.964;2023-02-12T09:32:21;43.68;39.73;53.84;;
36217;Laerm;22259;48.792;8.964;2023-02-12T09:34:47;43.53;40.18;55.33;;
36217;Laerm;22259;48.792;8.964;2023-02-12T09:37:12;43.36;39.31;61.50;;
36217;Laerm;22259;48.792;8.964;2023-02-12T09:39:38;45.07;39.70;60.92;;
36217;Laerm;22259;48.792;8.964;2023-02-12T09:51:17;53.25;40.76;75.64;;
36217;Laerm;22259;48.792;8.964;2023-02-12T09:53:44;52.70;41.73;64.47;;
36217;Laerm;22259;48.792;8.964;2023-02-12T09:56:14;47.93;40.93;62.14;;
36217;Laerm;22259;48.792;8.964;2023-02-12T09:58:49;46.68;40.80;64.99;;
36217;Laerm;22259;48.792;8.964;2023-02-12T10:01:17;52.74;41.18;74.81;;
36217;Laerm;22259;48.792;8.964;2023-02-12T10:03:42;47.63;40.91;67.31;;
36217;Laerm;22259;48.792;8.964;2023-02-12T10:06:22;47.40;40.86;62.74;;
36217;Laerm;22259;48.792;8.964;2023-02-12T10:14:36;48.51;40.82;62.52;;
36217;Laerm;22259;48.792;8.964;2023-02-12T10:17:17;54.15;41.59;69.79;;
36217;Laerm;22259;48.792;8.964;2023-02-12T10:20:04;47.10;41.57;68.49;;
36217;Laerm;22259;48.792;8.964;2023-02-12T10:23:38;44.14;41.24;54.17;;
36217;Laerm;22259;48.792;8.964;2023-02-12T10:26:12;43.61;40.86;57.47;;
36217;Laerm;22259;48.792;8.964;2023-02-12T10:28:40;43.86;41.08;54.75;;
36217;Laerm;22259;48.792;8.964;2023-02-12T10:31:26;43.60;41.63;48.64;;
36217;Laerm;22259;48.792;8.964;2023-02-12T10:33:53;44.59;40.69;62.49;;
36217;Laerm;22259;48.792;8.964;2023-02-12T10:36:33;50.76;41.81;74.68;;
36217;Laerm;22259;48.792;8.964;2023-02-12T10:39:02;48.24;41.92;67.53;;
36217;Laerm;22259;48.792;8.964;2023-02-12T10:41:30;44.44;40.91;62.96;;
36217;Laerm;22259;48.792;8.964;2023-02-12T10:43:59;46.31;41.68;62.45;;
36217;Laerm;22259;48.792;8.964;2023-02-12T10:46:26;55.87;41.40;69.18;;
36217;Laerm;22259;48.792;8.964;2023-02-12T10:48:54;45.37;41.59;67.74;;
36217;Laerm;22259;48.792;8.964;2023-02-12T10:51:28;44.06;40.97;57.58;;
36217;Laerm;22259;48.792;8.964;2023-02-12T10:53:58;44.75;41.30;64.85;;
36217;Laerm;22259;48.792;8.964;2023-02-12T10:56:54;45.97;41.34;76.52;;
36217;Laerm;22259;48.792;8.964;2023-02-12T10:59:21;43.71;40.93;58.54;;
36217;Laerm;22259;48.792;8.964;2023-02-12T11:01:47;43.75;41.26;58.08;;
36217;Laerm;22259;48.792;8.964;2023-02-12T11:04:28;45.98;40.50;66.66;;
36217;Laerm;22259;48.792;8.964;2023-02-12T11:07:04;46.84;41.01;72.20;;
36217;Laerm;22259;48.792;8.964;2023-02-12T11:09:36;45.92;41.00;66.02;;
36217;Laerm;22259;48.792;8.964;2023-02-12T11:16:31;52.22;41.40;69.71;;
36217;Laerm;22259;48.792;8.964;2023-02-12T11:18:57;43.86;41.30;63.05;;
36217;Laerm;22259;48.792;8.964;2023-02-12T11:21:23;49.15;41.30;77.81;;
36217;Laerm;22259;48.792;8.964;2023-02-12T11:23:48;43.60;41.06;55.22;;
36217;Laerm;22259;48.792;8.964;2023-02-12T11:28:59;43.38;41.02;55.09;;
36217;Laerm;22259;48.792;8.964;2023-02-12T11:31:28;43.81;41.72;48.45;;
36217;Laerm;22259;48.792;8.964;2023-02-12T11:34:36;43.45;41.26;52.18;;
36217;Laerm;22259;48.792;8.964;2023-02-12T11:37:02;44.15;41.64;58.99;;
36217;Laerm;22259;48.792;8.964;2023-02-12T11:39:30;43.17;40.21;63.73;;
36217;Laerm;22259;48.792;8.964;2023-02-12T11:44:55;52.20;41.18;68.60;;
36217;Laerm;22259;48.792;8.964;2023-02-12T11:47:29;50.45;41.48;67.00;;
36217;Laerm;22259;48.792;8.964;2023-02-12T11:50:01;46.53;41.83;60.90;;
36217;Laerm;22259;48.792;8.964;2023-02-12T11:52:28;51.19;42.88;62.44;;
36217;Laerm;22259;48.792;8.964;2023-02-12T11:54:59;49.96;41.86;64.25;;
36217;Laerm;22259;48.792;8.964;2023-02-12T11:57:43;47.22;41.24;59.78;;
36217;Laerm;22259;48.792;8.964;2023-02-12T12:01:13;45.92;41.28;58.70;;
36217;Laerm;22259;48.792;8.964;2023-02-12T12:03:53;45.15;41.48;55.54;;
36217;Laerm;22259;48.792;8.964;2023-02-12T12:06:35;49.09;41.06;71.09;;
36217;Laerm;22259;48.792;8.964;2023-02-12T12:09:04;51.49;41.46;63.14;;
36217;Laerm;22259;48.792;8.964;2023-02-12T12:14:16;43.87;40.43;61.01;;
36217;Laerm;22259;48.792;8.964;2023-02-12T12:16:52;55.00;41.77;69.42;;
36217;Laerm;22259;48.792;8.964;2023-02-12T12:19:39;44.44;40.82;62.13;;
36217;Laerm;22259;48.792;8.964;2023-02-12T12:22:26;51.04;41.26;70.16;;
36217;Laerm;22259;48.792;8.964;2023-02-12T12:26:26;45.26;41.48;62.29;;
36217;Laerm;22259;48.792;8.964;2023-02-12T12:28:56;44.83;41.28;62.90;;
36217;Laerm;22259;48.792;8.964;2023-02-12T12:31:29;44.34;41.59;55.16;;
36217;Laerm;22259;48.792;8.964;2023-02-12T12:34:29;44.73;42.03;62.17;;
36217;Laerm;22259;48.792;8.964;2023-02-12T12:37:06;44.13;40.75;54.97;;
36217;Laerm;22259;48.792;8.964;2023-02-12T12:40:02;43.76;41.08;55.23;;
36217;Laerm;22259;48.792;8.964;2023-02-12T12:42:54;44.07;41.16;53.74;;
36217;Laerm;22259;48.792;8.964;2023-02-12T12:49:25;49.62;40.87;68.46;;
36217;Laerm;22259;48.792;8.964;2023-02-12T12:54:43;44.01;41.36;50.35;;
36217;Laerm;22259;48.792;8.964;2023-02-12T12:58:38;43.17;40.80;53.56;;
36217;Laerm;22259;48.792;8.964;2023-02-12T13:01:21;44.26;40.85;62.66;;
36217;Laerm;22259;48.792;8.964;2023-02-12T13:15:24;51.49;41.96;77.82;;
36217;Laerm;22259;48.792;8.964;2023-02-12T13:18:00;44.48;42.53;54.47;;
36217;Laerm;22259;48.792;8.964;2023-02-12T13:20:35;50.24;41.44;66.75;;
36217;Laerm;22259;48.792;8.964;2023-02-12T13:23:16;43.55;40.85;46.25;;
36217;Laerm;22259;48.792;8.964;2023-02-12T13:25:47;44.25;41.24;58.50;;
36217;Laerm;22259;48.792;8.964;2023-02-12T13:28:15;44.06;42.22;51.49;;
36217;Laerm;22259;48.792;8.964;2023-02-12T13:30:46;43.56;41.14;51.34;;
36217;Laerm;22259;48.792;8.964;2023-02-12T13:33:20;43.30;40.62;45.92;;
36217;Laerm;22259;48.792;8.964;2023-02-12T13:35:47;42.89;40.21;48.15;;
36217;Laerm;22259;48.792;8.964;2023-02-12T13:38:18;43.72;41.30;50.30;;
36217;Laerm;22259;48.792;8.964;2023-02-12T13:40:44;44.09;41.61;52.69;;
36217;Laerm;22259;48.792;8.964;2023-02-12T13:43:29;43.72;41.73;46.43;;
36217;Laerm;22259;48.792;8.964;2023-02-12T13:46:04;52.65;41.68;69.30;;
36217;Laerm;22259;48.792;8.964;2023-02-12T13:49:39;43.86;41.40;49.07;;
36217;Laerm;22259;48.792;8.964;2023-02-12T13:52:29;49.15;41.75;63.84;;
36217;Laerm;22259;48.792;8.964;2023-02-12T13:55:20;44.16;41.64;56.46;;
36217;Laerm;22259;48.792;8.964;2023-02-12T13:57:55;43.86;41.20;58.15;;
36217;Laerm;22259;48.792;8.964;2023-02-12T14:01:06;43.54;41.14;55.07;;
36217;Laerm;22259;48.792;8.964;2023-02-12T14:03:32;43.45;40.91;53.89;;
36217;Laerm;22259;48.792;8.964;2023-02-12T14:06:13;43.42;41.04;48.93;;
36217;Laerm;22259;48.792;8.964;2023-02-12T14:08:40;43.62;41.16;58.94;;
36217;Laerm;22259;48.792;8.964;2023-02-12T14:11:10;45.03;41.59;66.81;;
36217;Laerm;22259;48.792;8.964;2023-02-12T14:13:44;43.94;41.96;58.27;;
36217;Laerm;22259;48.792;8.964;2023-02-12T14:25:26;44.14;41.22;63.77;;
36217;Laerm;22259;48.792;8.964;2023-02-12T14:27:57;44.19;41.26;59.17;;
36217;Laerm;22259;48.792;8.964;2023-02-12T14:30:32;45.65;41.61;65.20;;
36217;Laerm;22259;48.792;8.964;2023-02-12T14:32:59;44.10;42.08;53.88;;
36217;Laerm;22259;48.792;8.964;2023-02-12T14:35:37;46.13;42.37;66.85;;
36217;Laerm;22259;48.792;8.964;2023-02-12T14:45:28;52.97;41.73;70.44;;
36217;Laerm;22259;48.792;8.964;2023-02-12T14:47:54;51.80;41.96;69.47;;
36217;Laerm;22259;48.792;8.964;2023-02-12T14:50:30;45.95;41.63;66.73;;
36217;Laerm;22259;48.792;8.964;2023-02-12T14:53:20;44.07;42.22;53.81;;
36217;Laerm;22259;48.792;8.964;2023-02-12T14:55:47;44.50;42.29;54.95;;
36217;Laerm;22259;48.792;8.964;2023-02-12T14:58:17;44.26;41.72;51.31;;
36217;Laerm;22259;48.792;8.964;2023-02-12T15:00:44;43.64;41.55;47.78;;
36217;Laerm;22259;48.792;8.964;2023-02-12T15:03:18;43.73;41.77;50.42;;
36217;Laerm;22259;48.792;8.964;2023-02-12T15:13:17;44.01;41.12;64.34;;
36217;Laerm;22259;48.792;8.964;2023-02-12T15:15:58;54.24;41.57;69.57;;
36217;Laerm;22259;48.792;8.964;2023-02-12T15:18:32;44.22;41.63;62.93;;
36217;Laerm;22259;48.792;8.964;2023-02-12T15:21:03;43.58;41.48;49.87;;
36217;Laerm;22259;48.792;8.964;2023-02-12T15:23:31;45.18;41.86;58.71;;
36217;Laerm;22259;48.792;8.964;2023-02-12T15:25:57;44.55;41.81;55.95;;
36217;Laerm;22259;48.792;8.964;2023-02-12T15:28:24;44.53;42.43;51.50;;
36217;Laerm;22259;48.792;8.964;2023-02-12T15:30:54;44.23;41.63;48.26;;
36217;Laerm;22259;48.792;8.964;2023-02-12T15:33:23;54.66;42.26;73.74;;
36217;Laerm;22259;48.792;8.964;2023-02-12T15:35:50;48.13;42.01;68.73;;